sensor_id;sensor_type;location;lat;lon;timestamp;temperature;humidity
46217;DHT22;47258;59.424;13.482;2022-09-09T00:02:08;11.90;99.90
46217;DHT22;47258;59.424;13.482;2022-09-09T00:04:41;11.90;99.90
46217;DHT22;47258;59.424;13.482;2022-09-09T00:07:20;11.80;99.90
46217;DHT22;47258;59.424;13.482;2022-09-09T00:09:50;11.80;99.90
46217;DHT22;47258;59.424;13.482;2022-09-09T00:12:27;11.70;99.90
46217;DHT22;47258;59.424;13.482;2022-09-09T00:15:00;11.60;99.90
46217;DHT22;47258;59.424;13.482;2022-09-09T00:17:34;11.60;99.90
46217;DHT22;47258;59.424;13.482;2022-09-09T00:20:12;11.60;99.90
46217;DHT22;47258;59.424;13.482;2022-09-09T00:22:45;11.60;99.90
46217;DHT22;47258;59.424;13.482;2022-09-09T00:25:17;11.50;99.90
46217;DHT22;47258;59.424;13.482;2022-09-09T00:27:48;11.40;99.90
46217;DHT22;47258;59.424;13.482;2022-09-09T00:30:17;11.40;99.90
46217;DHT22;47258;59.424;13.482;2022-09-09T00:32:49;11.30;99.90
46217;DHT22;47258;59.424;13.482;2022-09-09T00:35:22;11.30;99.90
46217;DHT22;47258;59.424;13.482;2022-09-09T00:37:54;11.20;99.90
46217;DHT22;47258;59.424;13.482;2022-09-09T00:40:26;11.20;99.90
46217;DHT22;47258;59.424;13.482;2022-09-09T00:43:15;11.20;99.90
46217;DHT22;47258;59.424;13.482;2022-09-09T00:46:19;11.10;99.90
46217;DHT22;47258;59.424;13.482;2022-09-09T00:48:54;11.10;99.90
46217;DHT22;47258;59.424;13.482;2022-09-09T00:51:32;11.00;99.90
46217;DHT22;47258;59.424;13.482;2022-09-09T00:57:25;11.00;99.90
46217;DHT22;47258;59.424;13.482;2022-09-09T00:59:57;10.90;99.90
46217;DHT22;47258;59.424;13.482;2022-09-09T01:02:31;10.90;99.90
46217;DHT22;47258;59.424;13.482;2022-09-09T01:05:04;10.90;99.90
46217;DHT22;47258;59.424;13.482;2022-09-09T01:07:31;10.90;99.90
46217;DHT22;47258;59.424;13.482;2022-09-09T01:10:01;10.80;99.90
46217;DHT22;47258;59.424;13.482;2022-09-09T01:12:38;10.80;99.90
46217;DHT22;47258;59.424;13.482;2022-09-09T01:15:12;10.80;99.90
46217;DHT22;47258;59.424;13.482;2022-09-09T01:17:53;10.70;99.90
46217;DHT22;47258;59.424;13.482;2022-09-09T01:20:24;10.70;99.90
46217;DHT22;47258;59.424;13.482;2022-09-09T01:23:11;10.70;99.90
46217;DHT22;47258;59.424;13.482;2022-09-09T01:26:09;10.70;99.90
46217;DHT22;47258;59.424;13.482;2022-09-09T01:28:40;10.60;99.90
46217;DHT22;47258;59.424;13.482;2022-09-09T01:31:12;10.60;99.90
46217;DHT22;47258;59.424;13.482;2022-09-09T01:33:40;10.50;99.90
46217;DHT22;47258;59.424;13.482;2022-09-09T01:36:10;10.50;99.90
46217;DHT22;47258;59.424;13.482;2022-09-09T01:38:39;10.60;99.90
46217;DHT22;47258;59.424;13.482;2022-09-09T01:41:07;10.60;99.90
46217;DHT22;47258;59.424;13.482;2022-09-09T01:43:35;10.60;99.90
46217;DHT22;47258;59.424;13.482;2022-09-09T01:46:02;10.60;99.90
46217;DHT22;47258;59.424;13.482;2022-09-09T01:48:30;10.60;99.90
46217;DHT22;47258;59.424;13.482;2022-09-09T01:50:57;10.50;99.90
46217;DHT22;47258;59.424;13.482;2022-09-09T01:53:24;10.50;99.90
46217;DHT22;47258;59.424;13.482;2022-09-09T01:56:00;10.50;99.90
46217;DHT22;47258;59.424;13.482;2022-09-09T01:58:37;10.50;99.90
46217;DHT22;47258;59.424;13.482;2022-09-09T02:01:13;10.50;99.90
46217;DHT22;47258;59.424;13.482;2022-09-09T02:03:47;10.50;99.90
46217;DHT22;47258;59.424;13.482;2022-09-09T02:06:25;10.60;99.90
46217;DHT22;47258;59.424;13.482;2022-09-09T02:08:56;10.60;99.90
46217;DHT22;47258;59.424;13.482;2022-09-09T02:11:25;10.60;99.90
46217;DHT22;47258;59.424;13.482;2022-09-09T02:13:57;10.70;99.90
46217;DHT22;47258;59.424;13.482;2022-09-09T02:16:28;10.70;99.90
46217;DHT22;47258;59.424;13.482;2022-09-09T02:19:01;10.80;99.90
46217;DHT22;47258;59.424;13.482;2022-09-09T02:21:30;10.80;99.90
46217;DHT22;47258;59.424;13.482;2022-09-09T02:24:03;10.80;99.90
46217;DHT22;47258;59.424;13.482;2022-09-09T02:26:34;10.80;99.90
46217;DHT22;47258;59.424;13.482;2022-09-09T02:29:04;10.80;99.90
46217;DHT22;47258;59.424;13.482;2022-09-09T02:31:34;10.90;99.90
46217;DHT22;47258;59.424;13.482;2022-09-09T02:34:03;10.90;99.90
46217;DHT22;47258;59.424;13.482;2022-09-09T02:36:33;10.90;99.90
46217;DHT22;47258;59.424;13.482;2022-09-09T02:39:01;10.90;99.90
46217;DHT22;47258;59.424;13.482;2022-09-09T02:41:31;10.90;99.90
46217;DHT22;47258;59.424;13.482;2022-09-09T02:43:59;11.00;99.90
46217;DHT22;47258;59.424;13.482;2022-09-09T02:46:42;11.00;99.90
46217;DHT22;47258;59.424;13.482;2022-09-09T02:49:19;11.00;99.90
46217;DHT22;47258;59.424;13.482;2022-09-09T02:51:53;11.00;99.90
46217;DHT22;47258;59.424;13.482;2022-09-09T02:54:27;11.00;99.90
46217;DHT22;47258;59.424;13.482;2022-09-09T02:57:01;11.00;99.90
46217;DHT22;47258;59.424;13.482;2022-09-09T02:59:30;11.00;99.90
46217;DHT22;47258;59.424;13.482;2022-09-09T03:01:58;11.00;99.90
46217;DHT22;47258;59.424;13.482;2022-09-09T03:04:25;11.10;99.90
46217;DHT22;47258;59.424;13.482;2022-09-09T03:06:52;11.00;99.90
46217;DHT22;47258;59.424;13.482;2022-09-09T03:09:19;11.10;99.90
46217;DHT22;47258;59.424;13.482;2022-09-09T03:11:46;11.10;99.90
46217;DHT22;47258;59.424;13.482;2022-09-09T03:14:13;11.10;99.90
46217;DHT22;47258;59.424;13.482;2022-09-09T03:16:40;11.10;99.90
46217;DHT22;47258;59.424;13.482;2022-09-09T03:19:09;11.10;99.90
46217;DHT22;47258;59.424;13.482;2022-09-09T03:21:36;11.10;99.90
46217;DHT22;47258;59.424;13.482;2022-09-09T03:24:03;11.10;99.90
46217;DHT22;47258;59.424;13.482;2022-09-09T03:26:30;11.10;99.90
46217;DHT22;47258;59.424;13.482;2022-09-09T03:28:57;11.10;99.90
46217;DHT22;47258;59.424;13.482;2022-09-09T03:31:26;11.10;99.90
46217;DHT22;47258;59.424;13.482;2022-09-09T03:33:55;11.10;99.90
46217;DHT22;47258;59.424;13.482;2022-09-09T03:36:25;11.10;99.90
46217;DHT22;47258;59.424;13.482;2022-09-09T03:38:53;11.10;99.90
46217;DHT22;47258;59.424;13.482;2022-09-09T03:41:20;11.10;99.90
46217;DHT22;47258;59.424;13.482;2022-09-09T03:43:49;11.10;99.90
46217;DHT22;47258;59.424;13.482;2022-09-09T03:46:16;11.20;99.90
46217;DHT22;47258;59.424;13.482;2022-09-09T03:48:43;11.20;99.90
46217;DHT22;47258;59.424;13.482;2022-09-09T03:51:10;11.20;99.90
46217;DHT22;47258;59.424;13.482;2022-09-09T03:53:39;11.20;99.90
46217;DHT22;47258;59.424;13.482;2022-09-09T03:56:07;11.20;99.90
46217;DHT22;47258;59.424;13.482;2022-09-09T03:58:35;11.20;99.90
46217;DHT22;47258;59.424;13.482;2022-09-09T04:01:04;11.20;99.90
46217;DHT22;47258;59.424;13.482;2022-09-09T04:03:32;11.20;99.90
46217;DHT22;47258;59.424;13.482;2022-09-09T04:06:00;11.20;99.90
46217;DHT22;47258;59.424;13.482;2022-09-09T04:08:28;11.20;99.90
46217;DHT22;47258;59.424;13.482;2022-09-09T04:10:58;11.20;99.90
46217;DHT22;47258;59.424;13.482;2022-09-09T04:13:28;11.10;99.90
46217;DHT22;47258;59.424;13.482;2022-09-09T04:15:57;11.20;99.90
46217;DHT22;47258;59.424;13.482;2022-09-09T04:18:25;11.20;99.90
46217;DHT22;47258;59.424;13.482;2022-09-09T04:20:54;11.20;99.90
46217;DHT22;47258;59.424;13.482;2022-09-09T04:23:23;11.20;99.90
46217;DHT22;47258;59.424;13.482;2022-09-09T04:25:52;11.20;99.90
46217;DHT22;47258;59.424;13.482;2022-09-09T04:28:22;11.20;99.90
46217;DHT22;47258;59.424;13.482;2022-09-09T04:30:50;11.20;99.90
46217;DHT22;47258;59.424;13.482;2022-09-09T04:33:18;11.20;99.90
46217;DHT22;47258;59.424;13.482;2022-09-09T04:35:46;11.20;99.90
46217;DHT22;47258;59.424;13.482;2022-09-09T04:38:14;11.20;99.90
46217;DHT22;47258;59.424;13.482;2022-09-09T04:40:42;11.30;99.90
46217;DHT22;47258;59.424;13.482;2022-09-09T04:43:09;11.30;99.90
46217;DHT22;47258;59.424;13.482;2022-09-09T04:45:38;11.30;99.90
46217;DHT22;47258;59.424;13.482;2022-09-09T04:48:06;11.30;99.90
46217;DHT22;47258;59.424;13.482;2022-09-09T04:50:33;11.30;99.90
46217;DHT22;47258;59.424;13.482;2022-09-09T04:53:01;11.30;99.90
46217;DHT22;47258;59.424;13.482;2022-09-09T04:55:28;11.40;99.90
46217;DHT22;47258;59.424;13.482;2022-09-09T04:57:55;11.30;99.90
46217;DHT22;47258;59.424;13.482;2022-09-09T05:00:23;11.40;99.90
46217;DHT22;47258;59.424;13.482;2022-09-09T05:02:51;11.40;99.90
46217;DHT22;47258;59.424;13.482;2022-09-09T05:05:18;11.40;99.90
46217;DHT22;47258;59.424;13.482;2022-09-09T05:07:45;11.40;99.90
46217;DHT22;47258;59.424;13.482;2022-09-09T05:10:13;11.50;99.90
46217;DHT22;47258;59.424;13.482;2022-09-09T05:12:52;11.50;99.90
46217;DHT22;47258;59.424;13.482;2022-09-09T05:15:19;11.50;99.90
46217;DHT22;47258;59.424;13.482;2022-09-09T05:17:46;11.50;99.90
46217;DHT22;47258;59.424;13.482;2022-09-09T05:20:15;11.50;99.90
46217;DHT22;47258;59.424;13.482;2022-09-09T05:22:42;11.60;99.90
46217;DHT22;47258;59.424;13.482;2022-09-09T05:25:09;11.60;99.90
46217;DHT22;47258;59.424;13.482;2022-09-09T05:27:36;11.60;99.90
46217;DHT22;47258;59.424;13.482;2022-09-09T05:30:03;11.70;99.90
46217;DHT22;47258;59.424;13.482;2022-09-09T05:32:31;11.70;99.90
46217;DHT22;47258;59.424;13.482;2022-09-09T05:34:59;11.70;99.90
46217;DHT22;47258;59.424;13.482;2022-09-09T05:37:28;11.80;99.90
46217;DHT22;47258;59.424;13.482;2022-09-09T05:39:56;11.80;99.90
46217;DHT22;47258;59.424;13.482;2022-09-09T05:42:23;11.90;99.90
46217;DHT22;47258;59.424;13.482;2022-09-09T05:44:50;11.90;99.90
46217;DHT22;47258;59.424;13.482;2022-09-09T05:47:19;11.90;99.90
46217;DHT22;47258;59.424;13.482;2022-09-09T05:49:46;12.00;99.90
46217;DHT22;47258;59.424;13.482;2022-09-09T05:52:15;12.00;99.90
46217;DHT22;47258;59.424;13.482;2022-09-09T05:54:43;12.00;99.90
46217;DHT22;47258;59.424;13.482;2022-09-09T05:57:10;12.00;99.90
46217;DHT22;47258;59.424;13.482;2022-09-09T05:59:37;12.10;99.90
46217;DHT22;47258;59.424;13.482;2022-09-09T06:02:04;12.20;99.90
46217;DHT22;47258;59.424;13.482;2022-09-09T06:04:30;12.20;99.90
46217;DHT22;47258;59.424;13.482;2022-09-09T06:06:57;12.30;99.90
46217;DHT22;47258;59.424;13.482;2022-09-09T06:09:24;12.30;99.90
46217;DHT22;47258;59.424;13.482;2022-09-09T06:11:53;12.30;99.90
46217;DHT22;47258;59.424;13.482;2022-09-09T06:14:20;12.40;99.90
46217;DHT22;47258;59.424;13.482;2022-09-09T06:16:47;12.50;99.90
46217;DHT22;47258;59.424;13.482;2022-09-09T06:19:15;12.50;99.90
46217;DHT22;47258;59.424;13.482;2022-09-09T06:21:41;12.50;99.90
46217;DHT22;47258;59.424;13.482;2022-09-09T06:24:10;12.60;99.90
46217;DHT22;47258;59.424;13.482;2022-09-09T06:26:39;12.60;99.90
46217;DHT22;47258;59.424;13.482;2022-09-09T06:29:08;12.70;99.90
46217;DHT22;47258;59.424;13.482;2022-09-09T06:31:37;12.80;99.90
46217;DHT22;47258;59.424;13.482;2022-09-09T06:34:05;12.90;99.90
46217;DHT22;47258;59.424;13.482;2022-09-09T06:36:34;13.00;99.90
46217;DHT22;47258;59.424;13.482;2022-09-09T06:39:02;13.30;99.90
46217;DHT22;47258;59.424;13.482;2022-09-09T06:41:31;13.40;99.90
46217;DHT22;47258;59.424;13.482;2022-09-09T06:43:59;13.40;99.90
46217;DHT22;47258;59.424;13.482;2022-09-09T06:46:29;13.20;99.90
46217;DHT22;47258;59.424;13.482;2022-09-09T06:48:58;13.20;99.90
46217;DHT22;47258;59.424;13.482;2022-09-09T06:51:27;13.20;99.90
46217;DHT22;47258;59.424;13.482;2022-09-09T06:53:56;13.10;99.90
46217;DHT22;47258;59.424;13.482;2022-09-09T06:56:25;13.20;99.90
46217;DHT22;47258;59.424;13.482;2022-09-09T06:58:54;13.20;99.90
46217;DHT22;47258;59.424;13.482;2022-09-09T07:01:22;13.30;99.90
46217;DHT22;47258;59.424;13.482;2022-09-09T07:03:52;13.30;99.90
46217;DHT22;47258;59.424;13.482;2022-09-09T07:06:22;13.40;99.90
46217;DHT22;47258;59.424;13.482;2022-09-09T07:08:50;13.40;99.90
46217;DHT22;47258;59.424;13.482;2022-09-09T07:11:19;13.60;99.90
46217;DHT22;47258;59.424;13.482;2022-09-09T07:13:46;13.70;99.90
46217;DHT22;47258;59.424;13.482;2022-09-09T07:16:15;13.70;99.90
46217;DHT22;47258;59.424;13.482;2022-09-09T07:18:42;13.80;99.90
46217;DHT22;47258;59.424;13.482;2022-09-09T07:21:11;14.10;99.90
46217;DHT22;47258;59.424;13.482;2022-09-09T07:23:39;14.50;99.90
46217;DHT22;47258;59.424;13.482;2022-09-09T07:26:08;14.60;99.90
46217;DHT22;47258;59.424;13.482;2022-09-09T07:28:35;14.60;99.90
46217;DHT22;47258;59.424;13.482;2022-09-09T07:31:03;14.70;99.90
46217;DHT22;47258;59.424;13.482;2022-09-09T07:33:31;14.70;99.90
46217;DHT22;47258;59.424;13.482;2022-09-09T07:36:03;14.70;99.90
46217;DHT22;47258;59.424;13.482;2022-09-09T07:38:32;14.70;99.90
46217;DHT22;47258;59.424;13.482;2022-09-09T07:41:04;14.70;99.90
46217;DHT22;47258;59.424;13.482;2022-09-09T07:43:32;14.80;99.90
46217;DHT22;47258;59.424;13.482;2022-09-09T07:46:00;14.80;99.90
46217;DHT22;47258;59.424;13.482;2022-09-09T07:48:28;14.90;99.90
46217;DHT22;47258;59.424;13.482;2022-09-09T07:51:06;15.00;99.90
46217;DHT22;47258;59.424;13.482;2022-09-09T07:53:35;15.20;99.90
46217;DHT22;47258;59.424;13.482;2022-09-09T07:56:05;15.40;99.90
46217;DHT22;47258;59.424;13.482;2022-09-09T07:58:32;15.60;99.90
46217;DHT22;47258;59.424;13.482;2022-09-09T08:00:59;16.20;99.90
46217;DHT22;47258;59.424;13.482;2022-09-09T08:03:26;16.80;99.90
46217;DHT22;47258;59.424;13.482;2022-09-09T08:05:53;18.80;99.90
46217;DHT22;47258;59.424;13.482;2022-09-09T08:08:27;20.20;99.90
46217;DHT22;47258;59.424;13.482;2022-09-09T08:11:01;20.80;99.90
46217;DHT22;47258;59.424;13.482;2022-09-09T08:13:29;20.60;99.90
46217;DHT22;47258;59.424;13.482;2022-09-09T08:16:04;20.00;99.90
46217;DHT22;47258;59.424;13.482;2022-09-09T08:18:31;19.40;99.90
46217;DHT22;47258;59.424;13.482;2022-09-09T08:21:04;18.80;99.90
46217;DHT22;47258;59.424;13.482;2022-09-09T08:23:31;18.30;99.90
46217;DHT22;47258;59.424;13.482;2022-09-09T08:26:05;17.70;99.90
46217;DHT22;47258;59.424;13.482;2022-09-09T08:28:32;17.30;99.90
46217;DHT22;47258;59.424;13.482;2022-09-09T08:31:09;17.20;99.90
46217;DHT22;47258;59.424;13.482;2022-09-09T08:33:37;17.50;99.90
46217;DHT22;47258;59.424;13.482;2022-09-09T08:36:06;17.90;99.90
46217;DHT22;47258;59.424;13.482;2022-09-09T08:38:34;17.90;99.90
46217;DHT22;47258;59.424;13.482;2022-09-09T08:41:28;17.50;99.90
46217;DHT22;47258;59.424;13.482;2022-09-09T08:44:01;17.40;99.90
46217;DHT22;47258;59.424;13.482;2022-09-09T08:46:36;17.30;99.90
46217;DHT22;47258;59.424;13.482;2022-09-09T08:51:53;16.90;99.90
46217;DHT22;47258;59.424;13.482;2022-09-09T08:54:22;16.80;99.90
46217;DHT22;47258;59.424;13.482;2022-09-09T08:56:51;16.60;99.90
46217;DHT22;47258;59.424;13.482;2022-09-09T08:59:18;16.60;99.90
46217;DHT22;47258;59.424;13.482;2022-09-09T09:01:59;16.80;99.90
46217;DHT22;47258;59.424;13.482;2022-09-09T09:04:46;16.90;99.90
46217;DHT22;47258;59.424;13.482;2022-09-09T09:07:23;16.90;99.90
46217;DHT22;47258;59.424;13.482;2022-09-09T09:09:59;17.00;99.90
46217;DHT22;47258;59.424;13.482;2022-09-09T09:12:31;17.00;99.90
46217;DHT22;47258;59.424;13.482;2022-09-09T09:14:59;16.70;99.90
46217;DHT22;47258;59.424;13.482;2022-09-09T09:17:28;16.60;99.90
46217;DHT22;47258;59.424;13.482;2022-09-09T09:19:57;16.60;99.90
46217;DHT22;47258;59.424;13.482;2022-09-09T09:22:30;16.60;99.90
46217;DHT22;47258;59.424;13.482;2022-09-09T09:25:02;16.70;99.90
46217;DHT22;47258;59.424;13.482;2022-09-09T09:27:35;16.80;99.90
46217;DHT22;47258;59.424;13.482;2022-09-09T09:30:12;16.70;99.90
46217;DHT22;47258;59.424;13.482;2022-09-09T09:32:43;16.70;99.90
46217;DHT22;47258;59.424;13.482;2022-09-09T09:35:12;16.70;99.90
46217;DHT22;47258;59.424;13.482;2022-09-09T09:37:41;16.80;99.90
46217;DHT22;47258;59.424;13.482;2022-09-09T09:40:09;16.80;99.90
46217;DHT22;47258;59.424;13.482;2022-09-09T09:42:46;16.70;99.90
46217;DHT22;47258;59.424;13.482;2022-09-09T09:45:17;16.60;99.90
46217;DHT22;47258;59.424;13.482;2022-09-09T09:47:58;16.60;99.90
46217;DHT22;47258;59.424;13.482;2022-09-09T09:50:25;16.60;99.90
46217;DHT22;47258;59.424;13.482;2022-09-09T09:52:56;16.50;99.90
46217;DHT22;47258;59.424;13.482;2022-09-09T09:55:24;16.40;99.90
46217;DHT22;47258;59.424;13.482;2022-09-09T09:57:54;16.60;99.90
46217;DHT22;47258;59.424;13.482;2022-09-09T10:00:27;16.70;99.90
46217;DHT22;47258;59.424;13.482;2022-09-09T10:02:53;16.70;99.90
46217;DHT22;47258;59.424;13.482;2022-09-09T10:05:23;16.80;99.90
46217;DHT22;47258;59.424;13.482;2022-09-09T10:08:01;17.00;99.90
46217;DHT22;47258;59.424;13.482;2022-09-09T10:10:41;17.10;99.90
46217;DHT22;47258;59.424;13.482;2022-09-09T10:13:19;17.30;99.90
46217;DHT22;47258;59.424;13.482;2022-09-09T10:15:56;17.40;99.90
46217;DHT22;47258;59.424;13.482;2022-09-09T10:18:38;17.50;99.90
46217;DHT22;47258;59.424;13.482;2022-09-09T10:21:20;17.60;99.90
46217;DHT22;47258;59.424;13.482;2022-09-09T10:24:11;17.70;99.90
46217;DHT22;47258;59.424;13.482;2022-09-09T10:26:48;17.60;99.90
46217;DHT22;47258;59.424;13.482;2022-09-09T10:29:43;17.50;99.90
46217;DHT22;47258;59.424;13.482;2022-09-09T10:32:33;17.60;99.90
46217;DHT22;47258;59.424;13.482;2022-09-09T10:35:04;17.60;99.90
46217;DHT22;47258;59.424;13.482;2022-09-09T10:37:46;17.70;99.90
46217;DHT22;47258;59.424;13.482;2022-09-09T10:40:26;17.70;99.90
46217;DHT22;47258;59.424;13.482;2022-09-09T10:43:03;17.70;99.90
46217;DHT22;47258;59.424;13.482;2022-09-09T10:45:41;17.70;99.90
46217;DHT22;47258;59.424;13.482;2022-09-09T10:51:13;17.80;99.90
46217;DHT22;47258;59.424;13.482;2022-09-09T10:53:50;17.90;99.90
46217;DHT22;47258;59.424;13.482;2022-09-09T10:56:21;18.00;99.90
46217;DHT22;47258;59.424;13.482;2022-09-09T10:58:52;17.90;99.90
46217;DHT22;47258;59.424;13.482;2022-09-09T11:01:24;17.90;99.90
46217;DHT22;47258;59.424;13.482;2022-09-09T11:03:54;17.90;99.90
46217;DHT22;47258;59.424;13.482;2022-09-09T11:06:28;17.90;99.90
46217;DHT22;47258;59.424;13.482;2022-09-09T11:09:00;17.90;99.90
46217;DHT22;47258;59.424;13.482;2022-09-09T11:11:32;17.80;99.90
46217;DHT22;47258;59.424;13.482;2022-09-09T11:14:03;17.80;99.90
46217;DHT22;47258;59.424;13.482;2022-09-09T11:16:39;17.90;99.90
46217;DHT22;47258;59.424;13.482;2022-09-09T11:19:14;18.00;99.90
46217;DHT22;47258;59.424;13.482;2022-09-09T11:21:46;18.10;99.90
46217;DHT22;47258;59.424;13.482;2022-09-09T11:24:18;17.90;99.90
46217;DHT22;47258;59.424;13.482;2022-09-09T11:26:50;17.80;99.90
46217;DHT22;47258;59.424;13.482;2022-09-09T11:32:28;17.70;99.90
46217;DHT22;47258;59.424;13.482;2022-09-09T11:35:09;17.80;99.90
46217;DHT22;47258;59.424;13.482;2022-09-09T11:37:51;17.80;99.90
46217;DHT22;47258;59.424;13.482;2022-09-09T11:40:23;17.80;99.90
46217;DHT22;47258;59.424;13.482;2022-09-09T11:43:02;17.70;99.90
46217;DHT22;47258;59.424;13.482;2022-09-09T11:45:32;17.70;99.90
46217;DHT22;47258;59.424;13.482;2022-09-09T11:48:04;17.80;99.90
46217;DHT22;47258;59.424;13.482;2022-09-09T11:50:34;17.80;99.90
46217;DHT22;47258;59.424;13.482;2022-09-09T11:53:22;17.80;99.90
46217;DHT22;47258;59.424;13.482;2022-09-09T11:56:05;17.80;99.90
46217;DHT22;47258;59.424;13.482;2022-09-09T11:58:37;17.80;99.90
46217;DHT22;47258;59.424;13.482;2022-09-09T12:01:26;17.80;99.90
46217;DHT22;47258;59.424;13.482;2022-09-09T12:04:05;17.80;99.90
46217;DHT22;47258;59.424;13.482;2022-09-09T12:06:42;17.90;99.90
46217;DHT22;47258;59.424;13.482;2022-09-09T12:09:17;17.90;99.90
46217;DHT22;47258;59.424;13.482;2022-09-09T12:11:44;18.00;99.90
46217;DHT22;47258;59.424;13.482;2022-09-09T12:14:20;18.00;99.90
46217;DHT22;47258;59.424;13.482;2022-09-09T12:16:48;18.10;99.90
46217;DHT22;47258;59.424;13.482;2022-09-09T12:19:21;18.10;99.90
46217;DHT22;47258;59.424;13.482;2022-09-09T12:21:57;18.10;99.90
46217;DHT22;47258;59.424;13.482;2022-09-09T12:24:32;18.20;99.90
46217;DHT22;47258;59.424;13.482;2022-09-09T12:27:07;18.20;99.90
46217;DHT22;47258;59.424;13.482;2022-09-09T12:29:41;18.20;99.90
46217;DHT22;47258;59.424;13.482;2022-09-09T12:32:11;18.20;99.90
46217;DHT22;47258;59.424;13.482;2022-09-09T12:34:42;18.00;99.90
46217;DHT22;47258;59.424;13.482;2022-09-09T12:37:16;18.00;99.90
46217;DHT22;47258;59.424;13.482;2022-09-09T12:39:49;18.00;99.90
46217;DHT22;47258;59.424;13.482;2022-09-09T12:42:18;18.00;99.90
46217;DHT22;47258;59.424;13.482;2022-09-09T12:44:53;18.10;99.90
46217;DHT22;47258;59.424;13.482;2022-09-09T12:47:24;18.00;99.80
46217;DHT22;47258;59.424;13.482;2022-09-09T12:49:53;18.00;99.90
46217;DHT22;47258;59.424;13.482;2022-09-09T12:52:23;18.00;99.90
46217;DHT22;47258;59.424;13.482;2022-09-09T12:54:50;18.00;99.90
46217;DHT22;47258;59.424;13.482;2022-09-09T12:57:20;18.00;99.90
46217;DHT22;47258;59.424;13.482;2022-09-09T12:59:50;18.00;99.90
46217;DHT22;47258;59.424;13.482;2022-09-09T13:02:20;18.20;99.90
46217;DHT22;47258;59.424;13.482;2022-09-09T13:04:47;18.20;99.90
46217;DHT22;47258;59.424;13.482;2022-09-09T13:07:17;18.20;99.90
46217;DHT22;47258;59.424;13.482;2022-09-09T13:09:45;18.20;99.90
46217;DHT22;47258;59.424;13.482;2022-09-09T13:12:15;18.20;99.90
46217;DHT22;47258;59.424;13.482;2022-09-09T13:14:45;18.20;99.90
46217;DHT22;47258;59.424;13.482;2022-09-09T13:17:17;18.10;99.90
46217;DHT22;47258;59.424;13.482;2022-09-09T13:19:45;18.10;99.90
46217;DHT22;47258;59.424;13.482;2022-09-09T13:22:14;18.10;99.90
46217;DHT22;47258;59.424;13.482;2022-09-09T13:24:42;18.10;99.90
46217;DHT22;47258;59.424;13.482;2022-09-09T13:27:26;18.20;99.90
46217;DHT22;47258;59.424;13.482;2022-09-09T13:29:55;18.30;99.90
46217;DHT22;47258;59.424;13.482;2022-09-09T13:32:23;18.30;99.90
46217;DHT22;47258;59.424;13.482;2022-09-09T13:34:52;18.30;99.90
46217;DHT22;47258;59.424;13.482;2022-09-09T13:37:23;18.30;99.90
46217;DHT22;47258;59.424;13.482;2022-09-09T13:39:53;18.40;99.90
46217;DHT22;47258;59.424;13.482;2022-09-09T13:42:26;18.30;99.90
46217;DHT22;47258;59.424;13.482;2022-09-09T13:44:54;18.50;99.90
46217;DHT22;47258;59.424;13.482;2022-09-09T13:47:28;18.60;99.90
46217;DHT22;47258;59.424;13.482;2022-09-09T13:49:55;18.60;99.90
46217;DHT22;47258;59.424;13.482;2022-09-09T13:52:22;18.40;99.80
46217;DHT22;47258;59.424;13.482;2022-09-09T13:54:52;18.30;99.90
46217;DHT22;47258;59.424;13.482;2022-09-09T13:57:21;18.30;99.90
46217;DHT22;47258;59.424;13.482;2022-09-09T13:59:48;18.30;99.90
46217;DHT22;47258;59.424;13.482;2022-09-09T14:02:16;18.30;99.80
46217;DHT22;47258;59.424;13.482;2022-09-09T14:04:43;18.30;99.80
46217;DHT22;47258;59.424;13.482;2022-09-09T14:07:12;18.30;99.90
46217;DHT22;47258;59.424;13.482;2022-09-09T14:09:39;18.20;99.80
46217;DHT22;47258;59.424;13.482;2022-09-09T14:12:11;18.10;99.90
46217;DHT22;47258;59.424;13.482;2022-09-09T14:14:38;18.10;99.90
46217;DHT22;47258;59.424;13.482;2022-09-09T14:17:08;18.10;99.90
46217;DHT22;47258;59.424;13.482;2022-09-09T14:19:35;18.10;99.90
46217;DHT22;47258;59.424;13.482;2022-09-09T14:22:02;18.10;99.90
46217;DHT22;47258;59.424;13.482;2022-09-09T14:24:29;18.10;99.90
46217;DHT22;47258;59.424;13.482;2022-09-09T14:26:56;18.00;99.90
46217;DHT22;47258;59.424;13.482;2022-09-09T14:29:25;17.90;99.90
46217;DHT22;47258;59.424;13.482;2022-09-09T14:31:52;17.80;99.90
46217;DHT22;47258;59.424;13.482;2022-09-09T14:34:19;17.80;99.90
46217;DHT22;47258;59.424;13.482;2022-09-09T14:36:47;17.70;99.90
46217;DHT22;47258;59.424;13.482;2022-09-09T14:39:14;17.80;99.90
46217;DHT22;47258;59.424;13.482;2022-09-09T14:41:41;17.80;99.90
46217;DHT22;47258;59.424;13.482;2022-09-09T14:44:08;17.70;99.90
46217;DHT22;47258;59.424;13.482;2022-09-09T14:46:37;17.70;99.90
46217;DHT22;47258;59.424;13.482;2022-09-09T14:49:03;17.80;99.90
46217;DHT22;47258;59.424;13.482;2022-09-09T14:51:31;17.80;99.90
46217;DHT22;47258;59.424;13.482;2022-09-09T14:53:59;17.70;99.90
46217;DHT22;47258;59.424;13.482;2022-09-09T14:56:30;17.70;99.90
46217;DHT22;47258;59.424;13.482;2022-09-09T14:58:58;17.60;99.90
46217;DHT22;47258;59.424;13.482;2022-09-09T15:01:27;17.50;99.90
46217;DHT22;47258;59.424;13.482;2022-09-09T15:03:57;17.40;99.90
46217;DHT22;47258;59.424;13.482;2022-09-09T15:06:26;17.40;99.90
46217;DHT22;47258;59.424;13.482;2022-09-09T15:08:53;17.40;99.90
46217;DHT22;47258;59.424;13.482;2022-09-09T15:11:24;17.40;99.90
46217;DHT22;47258;59.424;13.482;2022-09-09T15:13:53;17.30;99.90
46217;DHT22;47258;59.424;13.482;2022-09-09T15:16:23;17.30;99.90
46217;DHT22;47258;59.424;13.482;2022-09-09T15:18:51;17.30;99.90
46217;DHT22;47258;59.424;13.482;2022-09-09T15:21:22;17.30;99.90
46217;DHT22;47258;59.424;13.482;2022-09-09T15:23:50;17.30;99.90
46217;DHT22;47258;59.424;13.482;2022-09-09T15:26:18;17.20;99.90
46217;DHT22;47258;59.424;13.482;2022-09-09T15:28:46;17.10;99.90
46217;DHT22;47258;59.424;13.482;2022-09-09T15:31:17;17.10;99.90
46217;DHT22;47258;59.424;13.482;2022-09-09T15:33:47;17.10;99.90
46217;DHT22;47258;59.424;13.482;2022-09-09T15:36:16;17.10;99.90
46217;DHT22;47258;59.424;13.482;2022-09-09T15:38:45;17.00;99.90
46217;DHT22;47258;59.424;13.482;2022-09-09T15:41:13;17.00;99.90
46217;DHT22;47258;59.424;13.482;2022-09-09T15:43:43;17.00;99.90
46217;DHT22;47258;59.424;13.482;2022-09-09T15:46:23;17.00;99.90
46217;DHT22;47258;59.424;13.482;2022-09-09T15:48:52;17.00;99.90
46217;DHT22;47258;59.424;13.482;2022-09-09T15:51:19;16.90;99.90